sensor_id;sensor_type;location;lat;lon;timestamp;P1;durP1;ratioP1;P2;durP2;ratioP2
54875;SDS011;40764;48.472;8.166;2023-05-10T00:04:21;0.60;;;0.40;;
54875;SDS011;40764;48.472;8.166;2023-05-10T00:10:21;0.83;;;0.50;;
54875;SDS011;40764;48.472;8.166;2023-05-10T00:16:22;1.07;;;0.50;;
54875;SDS011;40764;48.472;8.166;2023-05-10T00:22:22;0.27;;;0.27;;
54875;SDS011;40764;48.472;8.166;2023-05-10T00:28:23;0.33;;;0.27;;
54875;SDS011;40764;48.472;8.166;2023-05-10T00:34:23;2.60;;;0.63;;
54875;SDS011;40764;48.472;8.166;2023-05-10T00:40:24;1.70;;;0.40;;
54875;SDS011;40764;48.472;8.166;2023-05-10T00:46:25;0.60;;;0.60;;
54875;SDS011;40764;48.472;8.166;2023-05-10T00:52:26;6.10;;;0.43;;
54875;SDS011;40764;48.472;8.166;2023-05-10T00:58:28;2.10;;;0.55;;
54875;SDS011;40764;48.472;8.166;2023-05-10T01:04:30;0.70;;;0.60;;
54875;SDS011;40764;48.472;8.166;2023-05-10T01:10:31;5.93;;;0.60;;
54875;SDS011;40764;48.472;8.166;2023-05-10T01:16:32;2.57;;;0.90;;
54875;SDS011;40764;48.472;8.166;2023-05-10T01:29:14;2.92;;;1.10;;
54875;SDS011;40764;48.472;8.166;2023-05-10T01:42:07;1.85;;;0.85;;
54875;SDS011;40764;48.472;8.166;2023-05-10T01:48:10;3.30;;;0.70;;
54875;SDS011;40764;48.472;8.166;2023-05-10T01:54:13;6.50;;;1.08;;
54875;SDS011;40764;48.472;8.166;2023-05-10T02:00:17;3.83;;;0.93;;
54875;SDS011;40764;48.472;8.166;2023-05-10T02:06:19;3.70;;;0.98;;
54875;SDS011;40764;48.472;8.166;2023-05-10T02:12:22;2.65;;;1.25;;
54875;SDS011;40764;48.472;8.166;2023-05-10T02:18:24;1.50;;;1.00;;
54875;SDS011;40764;48.472;8.166;2023-05-10T02:24:27;2.03;;;1.10;;
54875;SDS011;40764;48.472;8.166;2023-05-10T02:30:28;4.68;;;1.30;;
54875;SDS011;40764;48.472;8.166;2023-05-10T02:36:31;1.25;;;1.13;;
54875;SDS011;40764;48.472;8.166;2023-05-10T02:42:32;2.37;;;1.00;;
54875;SDS011;40764;48.472;8.166;2023-05-10T02:48:36;2.92;;;1.08;;
54875;SDS011;40764;48.472;8.166;2023-05-10T02:54:41;11.88;;;1.77;;
54875;SDS011;40764;48.472;8.166;2023-05-10T03:00:45;4.30;;;1.95;;
54875;SDS011;40764;48.472;8.166;2023-05-10T03:06:46;3.90;;;1.83;;
54875;SDS011;40764;48.472;8.166;2023-05-10T03:12:52;3.17;;;2.00;;
54875;SDS011;40764;48.472;8.166;2023-05-10T03:19:12;4.20;;;1.13;;
54875;SDS011;40764;48.472;8.166;2023-05-10T03:25:22;3.72;;;1.33;;
54875;SDS011;40764;48.472;8.166;2023-05-10T03:31:23;1.60;;;1.33;;
54875;SDS011;40764;48.472;8.166;2023-05-10T03:37:23;2.50;;;2.00;;
54875;SDS011;40764;48.472;8.166;2023-05-10T03:43:24;17.08;;;1.85;;
54875;SDS011;40764;48.472;8.166;2023-05-10T03:49:24;3.50;;;2.00;;
54875;SDS011;40764;48.472;8.166;2023-05-10T03:55:25;8.15;;;3.35;;
54875;SDS011;40764;48.472;8.166;2023-05-10T04:01:25;13.23;;;4.40;;
54875;SDS011;40764;48.472;8.166;2023-05-10T04:07:25;9.60;;;4.43;;
54875;SDS011;40764;48.472;8.166;2023-05-10T04:13:25;7.20;;;4.88;;
54875;SDS011;40764;48.472;8.166;2023-05-10T04:19:29;2.60;;;1.33;;
54875;SDS011;40764;48.472;8.166;2023-05-10T04:25:33;9.63;;;3.78;;
54875;SDS011;40764;48.472;8.166;2023-05-10T04:31:34;15.18;;;5.63;;
54875;SDS011;40764;48.472;8.166;2023-05-10T04:37:36;7.38;;;3.53;;
54875;SDS011;40764;48.472;8.166;2023-05-10T04:43:36;5.73;;;1.50;;
54875;SDS011;40764;48.472;8.166;2023-05-10T04:49:37;3.40;;;2.50;;
54875;SDS011;40764;48.472;8.166;2023-05-10T04:55:37;4.82;;;2.72;;
54875;SDS011;40764;48.472;8.166;2023-05-10T05:01:38;7.68;;;1.02;;
54875;SDS011;40764;48.472;8.166;2023-05-10T05:07:39;4.07;;;1.20;;
54875;SDS011;40764;48.472;8.166;2023-05-10T05:13:39;6.17;;;1.50;;
54875;SDS011;40764;48.472;8.166;2023-05-10T05:19:40;6.38;;;1.55;;
54875;SDS011;40764;48.472;8.166;2023-05-10T05:25:40;3.50;;;1.80;;
54875;SDS011;40764;48.472;8.166;2023-05-10T05:31:40;10.05;;;2.97;;
54875;SDS011;40764;48.472;8.166;2023-05-10T05:37:40;4.75;;;2.47;;
54875;SDS011;40764;48.472;8.166;2023-05-10T05:43:41;1.02;;;0.90;;
54875;SDS011;40764;48.472;8.166;2023-05-10T05:49:41;8.48;;;4.60;;
54875;SDS011;40764;48.472;8.166;2023-05-10T05:55:54;2.15;;;1.30;;
54875;SDS011;40764;48.472;8.166;2023-05-10T06:01:56;3.17;;;1.05;;
54875;SDS011;40764;48.472;8.166;2023-05-10T06:07:56;1.30;;;1.20;;
54875;SDS011;40764;48.472;8.166;2023-05-10T06:14:00;9.52;;;1.95;;
54875;SDS011;40764;48.472;8.166;2023-05-10T06:20:00;23.73;;;10.33;;
54875;SDS011;40764;48.472;8.166;2023-05-10T06:26:01;24.63;;;10.43;;
54875;SDS011;40764;48.472;8.166;2023-05-10T06:32:01;15.48;;;6.55;;
54875;SDS011;40764;48.472;8.166;2023-05-10T06:38:02;5.10;;;2.80;;
54875;SDS011;40764;48.472;8.166;2023-05-10T06:44:02;3.42;;;1.60;;
54875;SDS011;40764;48.472;8.166;2023-05-10T06:50:03;0.80;;;0.70;;
54875;SDS011;40764;48.472;8.166;2023-05-10T06:56:04;0.93;;;0.80;;
54875;SDS011;40764;48.472;8.166;2023-05-10T07:02:04;1.60;;;0.70;;
54875;SDS011;40764;48.472;8.166;2023-05-10T07:08:05;6.97;;;0.60;;
54875;SDS011;40764;48.472;8.166;2023-05-10T07:14:06;1.23;;;0.60;;
54875;SDS011;40764;48.472;8.166;2023-05-10T07:20:07;3.45;;;0.70;;
54875;SDS011;40764;48.472;8.166;2023-05-10T07:26:08;2.13;;;0.67;;
54875;SDS011;40764;48.472;8.166;2023-05-10T07:32:09;0.77;;;0.57;;
54875;SDS011;40764;48.472;8.166;2023-05-10T07:38:09;5.95;;;0.77;;
54875;SDS011;40764;48.472;8.166;2023-05-10T07:44:11;0.40;;;0.30;;
54875;SDS011;40764;48.472;8.166;2023-05-10T07:50:11;2.23;;;0.70;;
54875;SDS011;40764;48.472;8.166;2023-05-10T07:56:21;0.80;;;0.80;;
54875;SDS011;40764;48.472;8.166;2023-05-10T08:02:32;1.00;;;0.70;;
54875;SDS011;40764;48.472;8.166;2023-05-10T08:08:32;0.67;;;0.67;;
54875;SDS011;40764;48.472;8.166;2023-05-10T08:14:33;3.50;;;0.90;;
54875;SDS011;40764;48.472;8.166;2023-05-10T08:20:33;1.60;;;1.10;;
54875;SDS011;40764;48.472;8.166;2023-05-10T08:26:33;3.95;;;0.85;;
54875;SDS011;40764;48.472;8.166;2023-05-10T08:32:34;1.48;;;0.80;;
54875;SDS011;40764;48.472;8.166;2023-05-10T08:38:35;1.10;;;0.63;;
54875;SDS011;40764;48.472;8.166;2023-05-10T08:44:35;1.43;;;1.20;;
54875;SDS011;40764;48.472;8.166;2023-05-10T08:50:37;14.80;;;0.87;;
54875;SDS011;40764;48.472;8.166;2023-05-10T08:56:38;4.97;;;1.05;;
54875;SDS011;40764;48.472;8.166;2023-05-10T09:02:39;4.43;;;1.40;;
54875;SDS011;40764;48.472;8.166;2023-05-10T09:08:41;3.38;;;1.27;;
54875;SDS011;40764;48.472;8.166;2023-05-10T09:14:43;2.50;;;0.52;;
54875;SDS011;40764;48.472;8.166;2023-05-10T09:20:44;1.48;;;0.40;;
54875;SDS011;40764;48.472;8.166;2023-05-10T09:26:45;0.90;;;0.50;;
54875;SDS011;40764;48.472;8.166;2023-05-10T09:32:48;1.40;;;0.65;;
54875;SDS011;40764;48.472;8.166;2023-05-10T09:38:49;6.13;;;1.60;;
54875;SDS011;40764;48.472;8.166;2023-05-10T09:44:51;0.43;;;0.30;;
54875;SDS011;40764;48.472;8.166;2023-05-10T09:50:56;1.30;;;0.50;;
54875;SDS011;40764;48.472;8.166;2023-05-10T09:56:57;1.27;;;0.57;;
54875;SDS011;40764;48.472;8.166;2023-05-10T10:02:58;2.63;;;0.73;;
54875;SDS011;40764;48.472;8.166;2023-05-10T10:09:00;1.77;;;0.77;;
54875;SDS011;40764;48.472;8.166;2023-05-10T10:15:00;3.03;;;0.50;;
54875;SDS011;40764;48.472;8.166;2023-05-10T10:21:01;0.67;;;0.60;;
54875;SDS011;40764;48.472;8.166;2023-05-10T10:39:48;0.90;;;0.50;;
54875;SDS011;40764;48.472;8.166;2023-05-10T10:52:13;0.50;;;0.50;;
54875;SDS011;40764;48.472;8.166;2023-05-10T10:58:30;2.35;;;0.40;;
54875;SDS011;40764;48.472;8.166;2023-05-10T11:04:41;3.72;;;0.55;;
54875;SDS011;40764;48.472;8.166;2023-05-10T11:16:58;3.78;;;1.13;;
54875;SDS011;40764;48.472;8.166;2023-05-10T11:23:10;2.70;;;0.70;;
54875;SDS011;40764;48.472;8.166;2023-05-10T11:29:15;3.58;;;0.90;;
54875;SDS011;40764;48.472;8.166;2023-05-10T11:35:16;0.70;;;0.70;;
54875;SDS011;40764;48.472;8.166;2023-05-10T11:41:18;3.63;;;0.77;;
54875;SDS011;40764;48.472;8.166;2023-05-10T11:47:21;1.77;;;0.50;;
54875;SDS011;40764;48.472;8.166;2023-05-10T11:53:22;2.73;;;0.90;;
54875;SDS011;40764;48.472;8.166;2023-05-10T11:59:22;1.88;;;1.25;;
54875;SDS011;40764;48.472;8.166;2023-05-10T12:05:22;4.03;;;0.88;;
54875;SDS011;40764;48.472;8.166;2023-05-10T12:11:27;1.53;;;1.13;;
54875;SDS011;40764;48.472;8.166;2023-05-10T12:17:28;1.10;;;0.70;;
54875;SDS011;40764;48.472;8.166;2023-05-10T12:23:29;2.10;;;1.17;;
54875;SDS011;40764;48.472;8.166;2023-05-10T12:29:29;1.63;;;1.10;;
54875;SDS011;40764;48.472;8.166;2023-05-10T12:35:30;4.33;;;0.67;;
54875;SDS011;40764;48.472;8.166;2023-05-10T12:41:31;0.73;;;0.53;;
54875;SDS011;40764;48.472;8.166;2023-05-10T12:47:31;2.28;;;0.68;;
54875;SDS011;40764;48.472;8.166;2023-05-10T12:53:33;1.10;;;0.57;;
54875;SDS011;40764;48.472;8.166;2023-05-10T12:59:33;0.83;;;0.60;;
54875;SDS011;40764;48.472;8.166;2023-05-10T13:05:33;1.50;;;0.63;;
54875;SDS011;40764;48.472;8.166;2023-05-10T13:11:34;6.70;;;0.80;;
54875;SDS011;40764;48.472;8.166;2023-05-10T13:17:35;1.77;;;0.53;;
54875;SDS011;40764;48.472;8.166;2023-05-10T13:23:35;2.58;;;0.90;;
54875;SDS011;40764;48.472;8.166;2023-05-10T13:29:35;5.07;;;1.23;;
54875;SDS011;40764;48.472;8.166;2023-05-10T13:35:35;1.17;;;0.68;;
54875;SDS011;40764;48.472;8.166;2023-05-10T13:41:36;1.73;;;0.50;;
54875;SDS011;40764;48.472;8.166;2023-05-10T13:47:37;1.37;;;0.60;;
54875;SDS011;40764;48.472;8.166;2023-05-10T13:53:37;1.65;;;0.43;;
54875;SDS011;40764;48.472;8.166;2023-05-10T13:59:37;1.15;;;0.50;;
54875;SDS011;40764;48.472;8.166;2023-05-10T14:05:37;0.57;;;0.40;;
54875;SDS011;40764;48.472;8.166;2023-05-10T14:11:38;2.23;;;0.60;;
54875;SDS011;40764;48.472;8.166;2023-05-10T14:17:42;1.67;;;0.52;;
54875;SDS011;40764;48.472;8.166;2023-05-10T14:23:43;0.80;;;0.35;;
54875;SDS011;40764;48.472;8.166;2023-05-10T14:29:43;0.93;;;0.20;;
54875;SDS011;40764;48.472;8.166;2023-05-10T14:35:44;14.20;;;3.30;;
54875;SDS011;40764;48.472;8.166;2023-05-10T14:41:45;2.80;;;1.55;;
54875;SDS011;40764;48.472;8.166;2023-05-10T14:47:47;6.32;;;0.75;;
54875;SDS011;40764;48.472;8.166;2023-05-10T14:53:47;0.73;;;0.57;;
54875;SDS011;40764;48.472;8.166;2023-05-10T14:59:49;2.63;;;0.63;;
54875;SDS011;40764;48.472;8.166;2023-05-10T15:05:50;1.80;;;0.60;;
54875;SDS011;40764;48.472;8.166;2023-05-10T15:11:51;2.00;;;0.90;;
54875;SDS011;40764;48.472;8.166;2023-05-10T15:17:51;2.20;;;0.60;;
54875;SDS011;40764;48.472;8.166;2023-05-10T15:23:51;3.90;;;1.93;;
54875;SDS011;40764;48.472;8.166;2023-05-10T15:29:52;5.68;;;0.93;;
54875;SDS011;40764;48.472;8.166;2023-05-10T15:35:53;2.10;;;0.87;;
54875;SDS011;40764;48.472;8.166;2023-05-10T15:41:53;1.50;;;1.37;;
54875;SDS011;40764;48.472;8.166;2023-05-10T15:47:54;0.60;;;0.60;;
54875;SDS011;40764;48.472;8.166;2023-05-10T15:53:54;1.53;;;0.63;;
54875;SDS011;40764;48.472;8.166;2023-05-10T15:59:55;0.80;;;0.50;;
54875;SDS011;40764;48.472;8.166;2023-05-10T16:05:57;2.47;;;0.50;;
54875;SDS011;40764;48.472;8.166;2023-05-10T16:11:57;1.03;;;0.47;;
54875;SDS011;40764;48.472;8.166;2023-05-10T16:17:58;1.20;;;0.38;;
54875;SDS011;40764;48.472;8.166;2023-05-10T16:23:59;2.43;;;0.87;;
54875;SDS011;40764;48.472;8.166;2023-05-10T16:30:00;1.67;;;0.50;;
54875;SDS011;40764;48.472;8.166;2023-05-10T16:36:00;6.40;;;0.83;;
54875;SDS011;40764;48.472;8.166;2023-05-10T16:42:00;3.72;;;0.75;;
54875;SDS011;40764;48.472;8.166;2023-05-10T16:48:01;4.40;;;0.80;;
54875;SDS011;40764;48.472;8.166;2023-05-10T16:54:02;3.72;;;0.50;;
54875;SDS011;40764;48.472;8.166;2023-05-10T17:00:03;2.00;;;1.08;;
54875;SDS011;40764;48.472;8.166;2023-05-10T17:06:04;2.42;;;0.90;;
54875;SDS011;40764;48.472;8.166;2023-05-10T17:12:20;0.77;;;0.63;;
54875;SDS011;40764;48.472;8.166;2023-05-10T17:18:21;0.47;;;0.47;;
54875;SDS011;40764;48.472;8.166;2023-05-10T17:24:21;0.83;;;0.50;;
54875;SDS011;40764;48.472;8.166;2023-05-10T17:30:25;1.00;;;0.68;;
54875;SDS011;40764;48.472;8.166;2023-05-10T17:36:27;0.90;;;0.52;;
54875;SDS011;40764;48.472;8.166;2023-05-10T17:42:35;0.70;;;0.47;;
54875;SDS011;40764;48.472;8.166;2023-05-10T17:48:35;0.77;;;0.55;;
54875;SDS011;40764;48.472;8.166;2023-05-10T17:54:36;2.20;;;0.70;;
54875;SDS011;40764;48.472;8.166;2023-05-10T18:00:36;0.67;;;0.50;;
54875;SDS011;40764;48.472;8.166;2023-05-10T18:06:37;1.30;;;0.63;;
54875;SDS011;40764;48.472;8.166;2023-05-10T18:12:39;3.60;;;1.90;;
54875;SDS011;40764;48.472;8.166;2023-05-10T18:18:41;3.00;;;1.15;;
54875;SDS011;40764;48.472;8.166;2023-05-10T18:24:48;3.38;;;1.42;;
54875;SDS011;40764;48.472;8.166;2023-05-10T18:30:49;3.03;;;1.27;;
54875;SDS011;40764;48.472;8.166;2023-05-10T18:36:59;2.30;;;0.98;;
54875;SDS011;40764;48.472;8.166;2023-05-10T18:43:01;1.77;;;0.93;;
54875;SDS011;40764;48.472;8.166;2023-05-10T18:49:03;2.53;;;1.08;;
54875;SDS011;40764;48.472;8.166;2023-05-10T18:55:05;1.77;;;1.02;;
54875;SDS011;40764;48.472;8.166;2023-05-10T19:01:06;1.30;;;0.90;;
54875;SDS011;40764;48.472;8.166;2023-05-10T19:07:06;3.20;;;0.97;;
54875;SDS011;40764;48.472;8.166;2023-05-10T19:13:17;1.43;;;0.80;;
54875;SDS011;40764;48.472;8.166;2023-05-10T19:19:18;4.15;;;0.82;;
54875;SDS011;40764;48.472;8.166;2023-05-10T19:25:18;1.08;;;0.77;;
54875;SDS011;40764;48.472;8.166;2023-05-10T19:31:25;2.27;;;1.50;;
54875;SDS011;40764;48.472;8.166;2023-05-10T19:37:25;2.97;;;1.05;;
54875;SDS011;40764;48.472;8.166;2023-05-10T19:43:39;1.87;;;0.87;;
54875;SDS011;40764;48.472;8.166;2023-05-10T19:49:43;4.78;;;1.48;;
54875;SDS011;40764;48.472;8.166;2023-05-10T19:55:50;4.55;;;2.28;;
54875;SDS011;40764;48.472;8.166;2023-05-10T20:01:50;0.80;;;0.70;;
54875;SDS011;40764;48.472;8.166;2023-05-10T20:07:51;1.57;;;0.93;;
54875;SDS011;40764;48.472;8.166;2023-05-10T20:13:53;2.07;;;1.07;;
54875;SDS011;40764;48.472;8.166;2023-05-10T20:19:54;6.85;;;0.98;;
54875;SDS011;40764;48.472;8.166;2023-05-10T20:25:54;3.20;;;0.60;;
54875;SDS011;40764;48.472;8.166;2023-05-10T20:31:57;2.67;;;0.90;;
54875;SDS011;40764;48.472;8.166;2023-05-10T20:37:57;1.60;;;0.80;;
54875;SDS011;40764;48.472;8.166;2023-05-10T20:44:14;2.13;;;0.73;;
54875;SDS011;40764;48.472;8.166;2023-05-10T20:50:21;0.80;;;0.80;;
54875;SDS011;40764;48.472;8.166;2023-05-10T20:56:21;1.48;;;1.20;;
54875;SDS011;40764;48.472;8.166;2023-05-10T21:02:22;1.57;;;0.93;;
54875;SDS011;40764;48.472;8.166;2023-05-10T21:08:22;1.37;;;0.83;;
54875;SDS011;40764;48.472;8.166;2023-05-10T21:20:26;4.22;;;0.82;;
54875;SDS011;40764;48.472;8.166;2023-05-10T21:26:26;2.25;;;0.80;;
54875;SDS011;40764;48.472;8.166;2023-05-10T21:32:27;7.20;;;1.30;;
54875;SDS011;40764;48.472;8.166;2023-05-10T21:38:27;3.47;;;1.42;;
54875;SDS011;40764;48.472;8.166;2023-05-10T21:44:28;4.63;;;1.30;;
54875;SDS011;40764;48.472;8.166;2023-05-10T21:50:29;5.55;;;1.60;;
54875;SDS011;40764;48.472;8.166;2023-05-10T21:56:30;1.20;;;0.90;;
54875;SDS011;40764;48.472;8.166;2023-05-10T22:02:32;1.67;;;1.07;;
54875;SDS011;40764;48.472;8.166;2023-05-10T22:08:33;1.48;;;1.00;;
54875;SDS011;40764;48.472;8.166;2023-05-10T22:14:33;3.33;;;1.27;;
54875;SDS011;40764;48.472;8.166;2023-05-10T22:20:34;5.80;;;1.93;;
54875;SDS011;40764;48.472;8.166;2023-05-10T22:26:34;6.07;;;1.50;;
54875;SDS011;40764;48.472;8.166;2023-05-10T22:32:34;3.85;;;1.35;;
54875;SDS011;40764;48.472;8.166;2023-05-10T22:38:35;9.18;;;1.10;;
54875;SDS011;40764;48.472;8.166;2023-05-10T22:44:35;3.07;;;1.17;;
54875;SDS011;40764;48.472;8.166;2023-05-10T22:50:36;5.07;;;0.90;;
54875;SDS011;40764;48.472;8.166;2023-05-10T22:56:37;2.00;;;1.20;;
54875;SDS011;40764;48.472;8.166;2023-05-10T23:02:39;1.33;;;0.80;;
54875;SDS011;40764;48.472;8.166;2023-05-10T23:08:40;1.58;;;1.08;;
54875;SDS011;40764;48.472;8.166;2023-05-10T23:14:40;1.58;;;1.05;;
54875;SDS011;40764;48.472;8.166;2023-05-10T23:20:40;1.13;;;0.60;;
54875;SDS011;40764;48.472;8.166;2023-05-10T23:26:44;1.02;;;0.80;;
54875;SDS011;40764;48.472;8.166;2023-05-10T23:32:45;0.87;;;0.77;;
54875;SDS011;40764;48.472;8.166;2023-05-10T23:38:45;1.40;;;0.90;;
54875;SDS011;40764;48.472;8.166;2023-05-10T23:44:46;7.40;;;1.05;;
54875;SDS011;40764;48.472;8.166;2023-05-10T23:50:46;5.20;;;1.00;;
